Time;durP1;ratioP1;P1;durP2;ratioP2;P2;SDS_P1;SDS_P2;PMS_P1;PMS_P2;Temp;Humidity;BMP_temperature;BMP_pressure;BME280_temperature;BME280_humidity;BME280_pressure;Samples;Min_cycle;Max_cycle;Signal;HPM_P1;HPM_P2
2022/07/22 00:01:40;;;;;;;88.18;83.05;;;;;;;21.58;65.22;97087.16;5073363;28;20197;-65
2022/07/22 00:04:05;;;;;;;131.50;124.20;;;;;;;21.57;65.15;97085.56;5071862;28;20213;-65
2022/07/22 00:06:31;;;;;;;148.32;140.20;;;;;;;21.57;65.55;97090.13;5073614;28;20596;-65
2022/07/22 00:08:57;;;;;;;145.57;137.10;;;;;;;21.60;65.19;97084.22;5073128;28;20186;-65
2022/07/22 00:11:23;;;;;;;148.25;140.15;;;;;;;21.52;65.49;97088.31;5073364;28;20185;-66
2022/07/22 00:13:48;;;;;;;151.27;143.05;;;;;;;21.50;65.64;97087.84;5073471;28;20242;-65
2022/07/22 00:16:14;;;;;;;141.38;133.68;;;;;;;21.63;64.97;97088.97;5072296;28;20193;-66
2022/07/22 00:18:40;;;;;;;139.57;132.07;;;;;;;21.58;65.43;97089.84;5041128;28;20618;-65
2022/07/22 00:21:05;;;;;;;154.82;146.80;;;;;;;21.51;66.16;97091.28;5073170;28;20598;-66
2022/07/22 00:23:32;;;;;;;198.65;188.68;;;;;;;21.45;66.89;97084.44;5073040;28;20230;-66
2022/07/22 00:25:57;;;;;;;210.45;199.90;;;;;;;21.43;66.96;97082.06;5072606;28;20226;-66
2022/07/22 00:28:23;;;;;;;197.35;187.32;;;;;;;21.45;66.22;97073.78;5073433;28;20185;-64
2022/07/22 00:30:48;;;;;;;204.80;194.57;;;;;;;21.53;66.00;97078.44;5073012;28;20193;-63
2022/07/22 00:33:14;;;;;;;173.73;165.00;;;;;;;21.49;65.95;97080.91;5072112;28;20189;-65
2022/07/22 00:35:39;;;;;;;137.68;130.57;;;;;;;21.42;66.48;97080.47;5072941;28;20190;-65
2022/07/22 00:38:05;;;;;;;133.45;126.28;;;;;;;21.25;67.30;97082.03;5072477;28;20185;-65
2022/07/22 00:40:30;;;;;;;174.80;165.48;;;;;;;21.28;67.09;97081.47;5072912;28;20213;-64
2022/07/22 00:42:55;;;;;;;145.43;137.65;;;;;;;21.33;66.28;97079.53;5072873;28;20185;-64
2022/07/22 00:45:21;;;;;;;157.02;148.32;;;;;;;21.24;66.27;97081.25;5072208;28;20264;-65
2022/07/22 00:47:46;;;;;;;158.85;150.15;;;;;;;21.07;66.85;97065.69;5072723;28;20186;-65
2022/07/22 00:50:14;;;;;;;171.23;161.90;;;;;;;20.87;67.76;97070.50;5072298;28;20192;-64
2022/07/22 00:52:42;;;;;;;205.27;194.10;;;;;;;20.86;67.98;97069.72;5072738;28;20185;-64
2022/07/22 00:55:08;;;;;;;178.23;168.40;;;;;;;20.86;67.88;97066.25;5072038;28;20591;-64
2022/07/22 00:57:34;;;;;;;153.15;144.73;;;;;;;20.86;68.33;97066.25;5072426;28;20272;-64
2022/07/22 00:59:59;;;;;;;152.77;144.32;;;;;;;20.78;68.85;97067.69;5072460;28;20256;-64
2022/07/22 01:02:25;;;;;;;185.00;174.65;;;;;;;20.91;68.30;97071.50;5072207;28;20196;-65
2022/07/22 01:04:50;;;;;;;309.70;292.65;;;;;;;20.79;68.64;97063.94;5070444;28;20581;-64
2022/07/22 01:07:16;;;;;;;501.38;472.35;;;;;;;20.80;68.89;97064.72;5071531;28;20280;-64
2022/07/22 01:09:45;;;;;;;629.30;591.22;;;;;;;20.85;68.86;97059.31;5071968;28;20208;-64
2022/07/22 01:12:10;;;;;;;664.47;623.35;;;;;;;20.82;68.95;97060.72;5072223;28;20200;-64
2022/07/22 01:14:36;;;;;;;651.28;610.45;;;;;;;20.75;69.12;97062.91;5072383;28;20268;-64
2022/07/22 01:17:02;;;;;;;586.00;550.20;;;;;;;20.74;69.42;97059.47;5072312;28;20692;-65
2022/07/22 01:19:27;;;;;;;493.58;464.08;;;;;;;20.63;69.84;97057.97;5054056;28;20189;-64
2022/07/22 01:21:53;;;;;;;446.73;420.58;;;;;;;20.65;69.94;97060.38;5054365;28;20637;-64
2022/07/22 01:24:19;;;;;;;328.45;309.98;;;;;;;20.69;70.02;97058.72;5072117;28;20725;-64
2022/07/22 01:26:44;;;;;;;294.98;278.83;;;;;;;20.64;70.32;97056.91;5072040;28;20212;-64
2022/07/22 01:29:10;;;;;;;291.38;275.30;;;;;;;20.69;70.01;97056.84;5076189;28;20181;-65
2022/07/22 01:31:35;;;;;;;255.15;241.25;;;;;;;20.56;70.48;97054.09;5076314;28;20181;-65
2022/07/22 01:34:00;;;;;;;225.85;213.88;;;;;;;20.67;70.27;97055.56;5075993;28;20263;-65
2022/07/22 01:36:26;;;;;;;214.82;203.48;;;;;;;20.57;70.57;97055.66;5076025;28;20216;-64
2022/07/22 01:38:51;;;;;;;181.32;171.43;;;;;;;20.58;70.61;97059.91;5075780;28;20635;-64
2022/07/22 01:41:17;;;;;;;168.07;159.10;;;;;;;20.60;70.66;97060.44;5076307;28;20181;-64
2022/07/22 01:43:43;;;;;;;159.77;151.18;;;;;;;20.57;70.81;97056.44;5075574;28;20204;-64
2022/07/22 01:46:08;;;;;;;160.95;152.48;;;;;;;20.55;71.12;97055.97;5075682;28;20192;-64
2022/07/22 01:48:33;;;;;;;155.88;147.63;;;;;;;20.47;71.81;97056.56;5075806;28;20219;-65
2022/07/22 01:50:59;;;;;;;131.77;124.50;;;;;;;20.50;71.52;97058.69;5075873;28;20189;-65
2022/07/22 01:53:24;;;;;;;89.80;84.60;;;;;;;20.43;72.14;97054.75;5075523;28;20185;-64
2022/07/22 01:55:50;;;;;;;100.45;94.45;;;;;;;20.44;71.94;97062.47;5054110;28;20222;-64
2022/07/22 01:58:15;;;;;;;97.82;92.30;;;;;;;20.37;71.92;97058.53;5055522;28;20545;-64
2022/07/22 02:00:42;;;;;;;115.43;108.80;;;;;;;20.42;72.01;97058.50;5055383;28;20769;-65
2022/07/22 02:03:07;;;;;;;118.80;112.35;;;;;;;20.13;73.38;97055.81;5054860;28;20206;-65
2022/07/22 02:05:33;;;;;;;101.28;95.60;;;;;;;20.10;73.51;97051.06;5053964;28;20650;-64
2022/07/22 02:08:08;;;;;;;101.03;95.35;;;;;;;20.07;73.70;97057.72;5053859;28;20193;-66
2022/07/22 02:10:34;;;;;;;96.22;90.82;;;;;;;20.14;73.71;97060.88;5055680;28;20193;-64
2022/07/22 02:13:00;;;;;;;193.98;183.27;;;;;;;20.29;72.98;97057.25;5055399;28;20639;-64
2022/07/22 02:15:26;;;;;;;325.17;306.85;;;;;;;20.07;74.13;97049.75;5055329;28;20186;-64
2022/07/22 02:17:51;;;;;;;267.38;252.23;;;;;;;19.93;74.79;97048.81;5055507;28;20240;-64
2022/07/22 02:20:17;;;;;;;178.77;169.13;;;;;;;19.99;74.66;97049.56;5055357;28;20218;-65
2022/07/22 02:22:42;;;;;;;100.97;94.57;;;;;;;19.97;75.08;97051.72;5055415;28;20591;-65
2022/07/22 02:25:08;;;;;;;133.50;126.10;;;;;;;19.96;75.29;97048.25;5054951;28;20279;-65
2022/07/22 02:27:34;;;;;;;121.53;114.70;;;;;;;19.83;75.96;97041.72;5055308;28;20329;-64
2022/07/22 02:30:00;;;;;;;62.30;58.70;;;;;;;19.82;76.10;97048.13;5054881;28;20215;-64
2022/07/22 02:32:25;;;;;;;77.20;72.75;;;;;;;19.70;77.05;97044.22;5054921;28;20190;-64
2022/07/22 02:34:50;;;;;;;100.40;94.82;;;;;;;19.47;78.62;97046.53;5054662;28;20236;-64
2022/07/22 02:37:16;;;;;;;58.38;54.95;;;;;;;19.37;80.22;97043.91;5055159;28;20204;-65
2022/07/22 02:39:41;;;;;;;88.18;83.20;;;;;;;19.36;81.39;97055.59;5054785;28;20182;-64
2022/07/22 02:42:07;;;;;;;123.47;116.40;;;;;;;19.38;82.09;97045.50;5055404;28;20587;-65
2022/07/22 02:44:32;;;;;;;52.63;49.38;;;;;;;19.27;82.69;97038.66;5054454;28;20202;-65
2022/07/22 02:46:58;;;;;;;106.43;100.22;;;;;;;19.22;83.57;97036.03;5054713;28;20604;-65
2022/07/22 02:49:23;;;;;;;206.73;195.33;;;;;;;19.03;84.38;97040.38;5054544;28;20190;-65
2022/07/22 02:51:48;;;;;;;218.40;206.52;;;;;;;19.00;84.42;97041.72;5054200;28;20588;-65
2022/07/22 02:54:14;;;;;;;240.57;227.30;;;;;;;19.04;84.48;97037.47;5052910;28;20531;-65
2022/07/22 02:56:39;;;;;;;239.13;226.13;;;;;;;19.02;84.91;97036.94;5074489;28;20543;-65
2022/07/22 02:59:04;;;;;;;238.48;225.40;;;;;;;19.02;85.13;97034.28;5074339;28;20189;-65
2022/07/22 03:01:30;;;;;;;188.75;178.43;;;;;;;19.09;84.90;97034.78;5074555;28;20261;-65
2022/07/22 03:03:56;;;;;;;176.38;166.70;;;;;;;19.00;85.29;97036.41;5054661;28;20291;-65
2022/07/22 03:06:21;;;;;;;149.20;140.95;;;;;;;19.07;85.24;97044.06;5074325;28;20223;-65
2022/07/22 03:08:47;;;;;;;118.65;112.13;;;;;;;18.88;86.69;97041.25;5073819;28;20177;-65
2022/07/22 03:11:12;;;;;;;98.83;93.10;;;;;;;18.94;86.56;97042.81;5074664;28;20192;-65
2022/07/22 03:13:38;;;;;;;80.55;76.00;;;;;;;18.94;86.65;97040.16;5074008;28;20541;-66
2022/07/22 03:16:03;;;;;;;66.30;62.40;;;;;;;18.90;87.01;97040.97;5074016;28;20579;-66
2022/07/22 03:18:29;;;;;;;50.33;47.33;;;;;;;18.77;87.88;97047.69;5074170;28;20189;-65
2022/07/22 03:20:54;;;;;;;58.67;55.07;;;;;;;18.68;88.42;97043.97;5074033;28;20268;-65
2022/07/22 03:23:19;;;;;;;100.77;95.00;;;;;;;18.71;88.51;97048.75;5073576;28;20669;-65
2022/07/22 03:25:45;;;;;;;103.03;97.03;;;;;;;18.62;89.12;97045.06;5073613;28;20185;-65
2022/07/22 03:28:10;;;;;;;70.43;65.83;;;;;;;18.68;88.97;97043.97;5056256;28;20652;-65
2022/07/22 03:30:35;;;;;;;87.50;82.53;;;;;;;18.61;89.84;97041.59;5073666;28;20181;-65
2022/07/22 03:33:01;;;;;;;222.40;209.90;;;;;;;18.43;91.08;97044.84;5073882;28;20219;-65
2022/07/22 03:35:26;;;;;;;192.80;182.25;;;;;;;18.44;91.53;97045.66;5073786;28;20195;-65
2022/07/22 03:37:51;;;;;;;118.87;112.03;;;;;;;18.35;92.54;97050.69;5073422;28;20189;-65
2022/07/22 03:40:17;;;;;;;86.20;81.03;;;;;;;18.41;92.37;97046.97;5073063;28;20533;-65
2022/07/22 03:42:42;;;;;;;46.93;43.73;;;;;;;18.41;92.36;97054.94;5073906;28;20284;-65
2022/07/22 03:45:09;;;;;;;51.53;48.13;;;;;;;18.35;92.98;97044.59;5073309;28;20204;-65
2022/07/22 03:47:35;;;;;;;53.03;49.60;;;;;;;18.34;93.11;97048.31;5073576;28;20193;-65
2022/07/22 03:50:01;;;;;;;92.67;87.03;;;;;;;18.48;92.44;97052.00;5072453;28;20649;-66
2022/07/22 03:52:27;;;;;;;159.23;150.40;;;;;;;18.25;94.01;97059.47;5073008;28;20572;-65
2022/07/22 03:54:52;;;;;;;153.37;144.70;;;;;;;18.26;94.21;97053.13;5073107;28;20213;-65
2022/07/22 03:57:19;;;;;;;147.13;138.97;;;;;;;18.41;93.62;97046.97;5073164;28;20205;-65
2022/07/22 03:59:44;;;;;;;133.20;125.83;;;;;;;18.38;93.88;97049.38;5073027;28;20200;-65
2022/07/22 04:02:10;;;;;;;98.67;92.77;;;;;;;18.45;93.34;97050.66;5072078;28;20177;-65
2022/07/22 04:04:35;;;;;;;61.63;57.77;;;;;;;18.76;91.70;97048.75;5071121;28;20224;-66
2022/07/22 04:07:00;;;;;;;65.13;61.00;;;;;;;18.79;91.17;97050.03;5072473;28;20587;-65
2022/07/22 04:09:26;;;;;;;64.93;60.73;;;;;;;18.87;91.08;97054.81;5072429;28;20189;-65
2022/07/22 04:11:51;;;;;;;66.53;62.50;;;;;;;18.96;90.52;97061.13;5072621;28;20181;-65
2022/07/22 04:14:17;;;;;;;79.93;75.13;;;;;;;19.02;90.18;97058.19;5072799;28;20645;-65
2022/07/22 04:16:46;;;;;;;83.50;78.30;;;;;;;19.03;89.70;97054.47;5072361;28;20685;-65
2022/07/22 04:19:11;;;;;;;79.63;74.85;;;;;;;18.90;90.86;97054.25;5073098;28;20263;-65
2022/07/22 04:21:37;;;;;;;78.97;74.47;;;;;;;19.22;89.26;97049.31;5073356;28;20590;-65
2022/07/22 04:24:03;;;;;;;110.50;104.18;;;;;;;19.43;87.63;97047.31;5072812;28;20201;-65
2022/07/22 04:26:29;;;;;;;121.95;115.03;;;;;;;19.40;88.27;97045.19;5055097;28;20186;-65
2022/07/22 04:28:54;;;;;;;134.98;127.47;;;;;;;19.10;89.72;97046.19;5072743;28;20181;-65
2022/07/22 04:31:20;;;;;;;100.78;94.82;;;;;;;19.45;87.70;97043.31;5072713;28;20178;-65
2022/07/22 04:33:45;;;;;;;82.72;77.85;;;;;;;19.25;88.36;97047.97;5072651;28;20191;-65
2022/07/22 04:36:10;;;;;;;71.70;67.32;;;;;;;19.05;89.34;97043.56;5072379;28;20685;-65
2022/07/22 04:38:36;;;;;;;70.28;66.13;;;;;;;18.87;90.73;97047.63;5072877;28;20185;-65
2022/07/22 04:41:01;;;;;;;71.22;67.00;;;;;;;19.16;89.73;97045.09;5054839;28;20173;-65
2022/07/22 04:43:27;;;;;;;81.63;76.60;;;;;;;19.27;89.06;97043.19;5072436;28;20197;-65
2022/07/22 04:45:52;;;;;;;137.98;130.25;;;;;;;19.39;88.24;97044.41;5072247;28;20182;-65
2022/07/22 04:48:17;;;;;;;135.48;127.97;;;;;;;18.93;90.91;97043.88;5072328;28;20185;-65
2022/07/22 04:50:46;;;;;;;72.68;68.35;;;;;;;19.13;89.87;97042.19;5072528;28;20258;-66
2022/07/22 04:53:11;;;;;;;99.53;93.85;;;;;;;19.33;88.79;97042.06;5054749;28;20192;-66
2022/07/22 04:55:37;;;;;;;87.80;82.55;;;;;;;19.39;89.20;97046.28;5072389;28;20667;-65
2022/07/22 04:58:02;;;;;;;177.50;167.57;;;;;;;19.48;88.08;97034.03;5072631;28;20185;-65
2022/07/22 05:00:28;;;;;;;262.73;248.00;;;;;;;19.22;89.31;97040.56;5072158;28;20185;-64
2022/07/22 05:02:54;;;;;;;343.95;324.40;;;;;;;19.68;87.33;97038.38;5070689;28;20184;-65
2022/07/22 05:05:20;;;;;;;207.18;195.75;;;;;;;19.71;86.68;97035.19;5071291;28;20603;-65
2022/07/22 05:07:45;;;;;;;174.95;165.45;;;;;;;20.11;85.00;97044.69;5072438;28;20185;-64
2022/07/22 05:10:11;;;;;;;155.68;147.05;;;;;;;20.00;84.52;97043.97;5072885;28;20181;-65
2022/07/22 05:12:36;;;;;;;223.75;211.23;;;;;;;20.37;83.93;97037.25;5072497;28;20728;-64
2022/07/22 05:15:02;;;;;;;285.30;269.08;;;;;;;19.90;84.92;97047.50;5072504;28;20185;-65
2022/07/22 05:17:28;;;;;;;318.48;300.02;;;;;;;20.67;80.97;97042.25;5072676;28;20546;-65
2022/07/22 05:19:53;;;;;;;335.20;316.00;;;;;;;20.75;79.94;97042.41;5072693;28;20193;-65
2022/07/22 05:22:19;;;;;;;357.42;336.90;;;;;;;21.32;77.73;97045.94;5054565;28;20189;-65
2022/07/22 05:24:45;;;;;;;215.10;202.95;;;;;;;21.29;77.28;97040.41;5071846;28;20235;-66
2022/07/22 05:27:10;;;;;;;178.30;168.13;;;;;;;21.81;75.42;97033.97;5072429;28;20200;-64
2022/07/22 05:29:35;;;;;;;119.18;112.35;;;;;;;21.63;75.77;97046.28;5072568;28;20185;-65
2022/07/22 05:32:01;;;;;;;106.55;100.30;;;;;;;21.61;75.43;97037.78;5072668;28;20555;-64
2022/07/22 05:34:26;;;;;;;122.03;114.95;;;;;;;21.66;74.35;97043.03;5072160;28;20209;-66
2022/07/22 05:36:52;;;;;;;149.95;141.52;;;;;;;21.71;75.51;97048.28;5072474;28;20181;-64
2022/07/22 05:39:18;;;;;;;148.82;140.60;;;;;;;21.44;76.22;97042.84;5053897;28;20693;-65
2022/07/22 05:41:43;;;;;;;191.23;180.73;;;;;;;21.91;74.32;97044.50;5071723;28;20189;-64
2022/07/22 05:44:08;;;;;;;168.50;159.13;;;;;;;22.61;71.46;97033.66;5071618;28;20197;-65
2022/07/22 05:46:34;;;;;;;249.82;236.50;;;;;;;22.75;70.39;97037.13;5072271;28;20661;-64
2022/07/22 05:49:00;;;;;;;235.80;223.38;;;;;;;22.80;70.10;97037.81;5072043;28;20571;-65
2022/07/22 05:51:25;;;;;;;165.68;156.38;;;;;;;23.05;68.79;97033.84;5070169;28;20228;-66
2022/07/22 05:53:50;;;;;;;156.80;148.07;;;;;;;22.90;69.65;97039.50;5071028;28;20243;-66
2022/07/22 05:56:16;;;;;;;154.05;145.48;;;;;;;23.05;68.85;97044.53;5071090;28;20302;-65
2022/07/22 05:58:42;;;;;;;140.50;132.45;;;;;;;22.30;72.73;97044.09;5071882;28;20181;-64
2022/07/22 06:01:08;;;;;;;145.23;137.20;;;;;;;22.36;72.02;97042.94;5071514;28;20276;-65
2022/07/22 06:03:34;;;;;;;158.55;149.82;;;;;;;22.09;72.26;97037.53;5071273;28;20205;-66
2022/07/22 06:06:01;;;;;;;205.63;194.27;;;;;;;22.17;73.24;97034.22;5070867;28;20536;-64
2022/07/22 06:08:27;;;;;;;245.57;232.65;;;;;;;21.84;74.50;97036.09;5071768;28;20190;-64
2022/07/22 06:10:53;;;;;;;267.13;252.98;;;;;;;22.03;74.41;97044.84;5053851;28;20618;-64
2022/07/22 06:13:18;;;;;;;258.75;244.85;;;;;;;22.47;71.64;97044.31;5072422;28;20185;-64
2022/07/22 06:15:44;;;;;;;264.77;250.65;;;;;;;22.79;70.91;97035.47;5075578;28;20186;-64
2022/07/22 06:18:09;;;;;;;231.52;219.25;;;;;;;22.92;69.74;97048.00;5075221;28;20186;-64
2022/07/22 06:20:35;;;;;;;168.43;159.13;;;;;;;21.91;73.97;97045.28;5074405;28;20193;-65
2022/07/22 06:23:01;;;;;;;172.73;163.23;;;;;;;22.36;71.95;97040.25;5075003;28;20177;-65
2022/07/22 06:25:26;;;;;;;174.35;164.57;;;;;;;22.09;72.49;97050.91;5074562;28;20185;-64
2022/07/22 06:27:51;;;;;;;255.73;241.98;;;;;;;21.66;74.74;97043.03;5074813;28;20189;-64
2022/07/22 06:30:17;;;;;;;273.98;259.00;;;;;;;21.70;75.76;97043.25;5074580;28;20193;-65
2022/07/22 06:32:42;;;;;;;262.23;247.77;;;;;;;22.06;74.52;97043.47;5075165;28;20188;-65
2022/07/22 06:35:08;;;;;;;257.17;242.77;;;;;;;21.75;75.16;97043.16;5074691;28;20184;-65
2022/07/22 06:37:33;;;;;;;263.67;249.38;;;;;;;22.05;73.92;97044.56;5074595;28;20258;-64
2022/07/22 06:39:59;;;;;;;255.65;242.15;;;;;;;22.50;71.93;97043.75;5075398;28;20543;-64
2022/07/22 06:42:24;;;;;;;254.65;240.82;;;;;;;22.64;71.43;97039.19;5074823;28;20185;-65
2022/07/22 06:44:52;;;;;;;168.88;159.25;;;;;;;23.27;69.57;97037.63;5074608;28;20193;-64
2022/07/22 06:47:17;;;;;;;124.50;117.13;;;;;;;23.66;66.22;97035.16;5075507;28;20184;-64
2022/07/22 06:49:42;;;;;;;122.40;115.13;;;;;;;23.37;65.91;97040.88;5075410;28;20544;-64
2022/07/22 06:52:07;;;;;;;108.13;101.78;;;;;;;23.05;65.34;97043.72;5074853;28;20212;-64
2022/07/22 06:54:33;;;;;;;99.07;93.43;;;;;;;23.30;65.61;97040.50;5074933;28;20228;-64
2022/07/22 06:56:58;;;;;;;93.95;88.50;;;;;;;22.93;66.16;97052.25;5074916;28;20227;-64
2022/07/22 06:59:24;;;;;;;90.80;85.30;;;;;;;23.49;64.96;97037.69;5070757;28;20191;-64
2022/07/22 07:01:51;;;;;;;97.03;91.00;;;;;;;23.70;63.54;97044.16;5072780;28;20188;-65
2022/07/22 07:04:18;;;;;;;98.13;92.22;;;;;;;22.42;68.99;97041.75;5073081;28;20213;-64
2022/07/22 07:06:44;;;;;;;98.72;92.80;;;;;;;22.96;67.66;97046.31;5074272;28;20191;-65
2022/07/22 07:09:09;;;;;;;106.15;99.68;;;;;;;23.74;64.83;97039.00;5074462;28;20185;-65
2022/07/22 07:11:34;;;;;;;98.57;92.63;;;;;;;23.99;63.03;97039.16;5073961;28;20634;-65
2022/07/22 07:14:00;;;;;;;98.90;93.15;;;;;;;23.51;65.04;97035.53;5074520;28;20591;-65
2022/07/22 07:16:25;;;;;;;108.45;102.15;;;;;;;23.48;65.73;97034.22;5073898;28;20586;-64
2022/07/22 07:18:51;;;;;;;129.70;122.22;;;;;;;24.10;64.46;97028.19;5074713;28;20216;-65
2022/07/22 07:21:16;;;;;;;107.07;100.60;;;;;;;23.99;63.85;97024.97;5055870;28;20231;-66
2022/07/22 07:23:42;;;;;;;99.05;93.10;;;;;;;23.38;64.82;97029.09;5073180;28;20198;-65
2022/07/22 07:26:07;;;;;;;96.28;90.57;;;;;;;24.46;62.44;97022.72;5055286;28;20181;-65
2022/07/22 07:28:33;;;;;;;91.00;85.75;;;;;;;24.36;61.98;97021.06;5074357;28;20196;-65
2022/07/22 07:30:58;;;;;;;100.03;94.07;;;;;;;23.92;63.88;97013.91;5074347;28;20185;-65
2022/07/22 07:33:23;;;;;;;101.22;95.20;;;;;;;24.03;63.52;97010.66;5073869;28;20181;-65
2022/07/22 07:35:49;;;;;;;113.85;107.30;;;;;;;24.21;63.18;97008.88;5074291;28;20633;-65
2022/07/22 07:38:14;;;;;;;105.60;99.50;;;;;;;24.21;62.73;97011.56;5073222;28;20212;-65
2022/07/22 07:40:40;;;;;;;114.85;108.50;;;;;;;24.52;62.02;97011.50;5056153;28;20208;-65
2022/07/22 07:43:05;;;;;;;93.13;87.60;;;;;;;24.12;63.07;97015.28;5072869;28;20220;-65
2022/07/22 07:45:31;;;;;;;102.55;96.55;;;;;;;23.55;65.79;97015.06;5072559;28;20189;-65
2022/07/22 07:47:56;;;;;;;149.43;140.63;;;;;;;23.69;65.93;97005.09;5073859;28;20188;-65
2022/07/22 07:50:22;;;;;;;136.20;128.23;;;;;;;23.80;64.28;97001.06;5073000;28;20177;-66
2022/07/22 07:52:47;;;;;;;143.77;135.73;;;;;;;24.40;62.85;97003.28;5073274;28;20604;-65
2022/07/22 07:55:14;;;;;;;126.93;119.78;;;;;;;24.41;62.35;96999.50;5072711;28;20259;-65
2022/07/22 07:57:40;;;;;;;114.82;108.20;;;;;;;24.42;61.45;97003.75;5073173;28;20548;-65
2022/07/22 08:00:09;;;;;;;95.20;89.85;;;;;;;24.39;61.89;97004.41;5073545;28;20220;-65
2022/07/22 08:02:34;;;;;;;99.75;94.03;;;;;;;24.51;61.37;96996.56;5072770;28;20268;-65
2022/07/22 08:05:01;;;;;;;88.60;83.40;;;;;;;25.07;58.55;97003.81;5072147;28;20209;-65
2022/07/22 08:07:26;;;;;;;81.82;76.93;;;;;;;25.30;57.93;97004.44;5072230;28;20181;-64
2022/07/22 08:09:52;;;;;;;84.82;79.65;;;;;;;25.24;58.58;97005.72;5072994;28;20255;-65
2022/07/22 08:12:17;;;;;;;98.18;92.55;;;;;;;25.82;56.91;97001.72;5072678;28;20192;-65
2022/07/22 08:14:42;;;;;;;114.45;108.10;;;;;;;25.67;56.93;97000.34;5072723;28;20182;-65
2022/07/22 08:17:08;;;;;;;73.28;68.95;;;;;;;25.75;56.59;97001.41;5072575;28;20197;-65
2022/07/22 08:19:33;;;;;;;118.93;112.35;;;;;;;25.53;56.60;97005.84;5073204;28;20192;-65
2022/07/22 08:21:58;;;;;;;106.95;101.22;;;;;;;25.94;55.79;97002.66;5073313;28;20188;-62
2022/07/22 08:24:24;;;;;;;65.78;61.88;;;;;;;25.93;55.25;96995.69;5072691;28;20193;-65
2022/07/22 08:26:49;;;;;;;50.15;47.20;;;;;;;26.11;55.14;96996.44;5072853;28;20181;-63
2022/07/22 08:29:15;;;;;;;50.15;47.08;;;;;;;25.68;55.98;97004.63;5073409;28;20189;-63
2022/07/22 08:31:40;;;;;;;38.30;35.83;;;;;;;24.77;57.94;97002.78;5072969;28;20211;-63
2022/07/22 08:34:06;;;;;;;44.97;42.08;;;;;;;25.11;57.52;96993.22;5072282;28;20200;-63
2022/07/22 08:36:31;;;;;;;55.35;52.28;;;;;;;25.52;56.70;96995.44;5072854;28;20185;-63
2022/07/22 08:38:57;;;;;;;40.83;38.22;;;;;;;26.08;55.01;96984.44;5072355;28;20556;-63
2022/07/22 08:41:24;;;;;;;53.70;50.38;;;;;;;25.09;58.57;96992.75;5072305;28;20181;-64
2022/07/22 08:43:51;;;;;;;56.30;52.70;;;;;;;25.70;56.59;96986.28;5071808;28;20247;-63
2022/07/22 08:46:16;;;;;;;41.72;38.95;;;;;;;26.26;54.72;96979.81;5072554;28;20548;-63
2022/07/22 08:48:42;;;;;;;37.30;34.90;;;;;;;26.34;54.39;96980.91;5072271;28;20189;-63
2022/07/22 08:51:08;;;;;;;45.70;42.55;;;;;;;25.37;57.96;96977.91;5072791;28;20185;-63
2022/07/22 08:53:33;;;;;;;70.70;66.55;;;;;;;25.15;58.85;96975.38;5071202;28;20604;-63
2022/07/22 08:56:00;;;;;;;40.03;37.53;;;;;;;24.84;58.23;96973.63;5072761;28;20586;-63
2022/07/22 08:58:26;;;;;;;62.30;58.67;;;;;;;24.91;58.89;96975.84;5072463;28;20239;-63
2022/07/22 09:01:11;;;;;;;76.20;71.70;;;;;;;25.12;58.22;96971.47;5072034;28;20243;-63
2022/07/22 09:03:55;;;;;;;46.75;43.67;;;;;;;25.36;57.68;96970.97;5071252;28;20215;-64
2022/07/22 09:06:23;;;;;;;45.05;41.97;;;;;;;26.11;55.56;96963.41;5071345;28;20177;-65
2022/07/22 09:08:55;;;;;;;46.95;44.28;;;;;;;25.14;55.43;96969.22;5072722;28;20196;-65
2022/07/22 09:11:25;;;;;;;24.42;22.83;;;;;;;25.52;56.37;96964.00;5065655;28;20189;-64
2022/07/22 09:13:52;;;;;;;28.10;26.30;;;;;;;25.71;55.68;96960.22;5071741;28;20188;-63
2022/07/22 09:16:43;;;;;;;30.08;28.23;;;;;;;26.24;53.88;96968.63;5072468;28;20180;-63
2022/07/22 09:19:09;;;;;;;32.30;30.10;;;;;;;25.67;55.99;96968.91;5072326;28;20220;-63
2022/07/22 09:21:37;;;;;;;32.20;30.20;;;;;;;25.80;55.14;96958.31;5054988;28;20558;-63
2022/07/22 09:24:04;;;;;;;31.00;29.05;;;;;;;25.69;55.42;96957.06;5071701;28;20681;-64
2022/07/22 09:26:39;;;;;;;26.30;24.52;;;;;;;26.63;54.23;96955.94;5071732;28;20177;-63
2022/07/22 09:29:06;;;;;;;25.73;23.85;;;;;;;25.63;57.09;96967.94;5072476;28;20259;-64
2022/07/22 09:31:36;;;;;;;27.80;25.70;;;;;;;25.54;56.12;96959.09;5072418;28;20719;-64
2022/07/22 09:34:03;;;;;;;27.15;25.17;;;;;;;25.62;55.98;96966.41;5071226;28;20243;-64
2022/07/22 09:36:29;;;;;;;31.27;29.15;;;;;;;25.99;54.89;96966.78;5071999;28;20185;-64
2022/07/22 09:38:55;;;;;;;30.67;28.42;;;;;;;25.82;54.66;96956.06;5070037;28;21872;-64
2022/07/22 09:41:21;;;;;;;40.22;37.70;;;;;;;25.41;55.53;96967.34;5071891;28;20263;-64
2022/07/22 09:43:47;;;;;;;31.42;29.33;;;;;;;25.92;55.37;96956.50;5071527;28;20208;-64
2022/07/22 09:46:13;;;;;;;30.90;28.83;;;;;;;26.09;55.37;96958.34;5071540;28;20647;-64
2022/07/22 09:48:39;;;;;;;33.80;31.55;;;;;;;25.73;55.67;96949.94;5055183;28;20189;-63
2022/07/22 09:51:05;;;;;;;31.35;29.25;;;;;;;25.93;55.04;96951.94;5075411;28;20278;-64
2022/07/22 09:53:31;;;;;;;32.72;30.52;;;;;;;25.29;56.81;96946.50;5075391;28;20264;-63
2022/07/22 09:55:59;;;;;;;33.05;30.98;;;;;;;25.92;55.60;96943.09;5076305;28;20229;-64
2022/07/22 09:58:25;;;;;;;32.42;30.25;;;;;;;26.09;55.11;96951.09;5075421;28;20189;-64
2022/07/22 10:00:52;;;;;;;33.80;31.52;;;;;;;26.62;53.83;96939.00;5075160;28;20211;-64
2022/07/22 10:03:24;;;;;;;36.05;33.83;;;;;;;26.47;54.36;96931.50;5074375;28;20263;-64
2022/07/22 10:05:49;;;;;;;47.75;44.85;;;;;;;25.80;55.65;96934.13;5074874;28;20203;-63
2022/07/22 10:08:15;;;;;;;55.05;51.78;;;;;;;25.66;55.78;96927.06;5075428;28;20192;-63
2022/07/22 10:10:41;;;;;;;64.15;60.60;;;;;;;26.02;54.79;96932.00;5075862;28;20186;-63
2022/07/22 10:13:07;;;;;;;42.55;40.00;;;;;;;25.70;55.88;96935.25;5075053;28;20611;-65
2022/07/22 10:15:34;;;;;;;31.92;29.73;;;;;;;25.99;55.48;96927.25;5075230;28;20733;-63
2022/07/22 10:18:06;;;;;;;32.83;30.55;;;;;;;26.19;55.24;96928.47;5075316;28;20234;-64
2022/07/22 10:20:32;;;;;;;75.47;71.25;;;;;;;25.91;55.30;96917.34;5075204;28;20590;-64
2022/07/22 10:23:08;;;;;;;84.72;80.22;;;;;;;26.58;53.86;96905.81;5075385;28;20193;-63
2022/07/22 10:25:56;;;;;;;52.13;49.05;;;;;;;26.86;53.30;96906.09;5072451;28;20174;-66
2022/07/22 10:28:23;;;;;;;183.38;173.65;;;;;;;26.45;54.22;96902.25;5069627;28;20709;-65
2022/07/22 10:30:49;;;;;;;168.43;159.38;;;;;;;26.43;54.17;96901.78;5069259;28;20181;-65
2022/07/22 10:33:17;;;;;;;247.32;233.98;;;;;;;26.77;53.09;96900.75;5068778;28;20684;-65
2022/07/22 10:35:42;;;;;;;332.48;314.88;;;;;;;26.89;52.06;96895.47;5069204;28;20271;-64
2022/07/22 10:38:09;;;;;;;343.83;325.73;;;;;;;26.62;52.75;96895.19;5068818;28;20610;-65
2022/07/22 10:41:04;;;;;;;322.00;304.85;;;;;;;26.65;53.12;96891.81;5073145;28;20181;-65
2022/07/22 10:43:31;;;;;;;194.18;184.02;;;;;;;26.68;52.04;96891.97;5074609;28;20424;-64
2022/07/22 10:46:02;;;;;;;273.02;258.75;;;;;;;26.86;52.24;96888.03;5075202;28;20652;-64
2022/07/22 10:48:36;;;;;;;270.00;255.85;;;;;;;27.26;51.57;96884.84;5074481;28;20351;-65
2022/07/22 10:51:10;;;;;;;180.38;170.52;;;;;;;26.82;51.82;96889.81;5073917;28;20618;-64
2022/07/22 10:53:39;;;;;;;252.65;239.38;;;;;;;26.36;53.86;96873.84;5056235;28;20197;-64
2022/07/22 10:56:26;;;;;;;199.70;189.02;;;;;;;26.89;51.64;96884.72;5074465;28;20233;-65
2022/07/22 10:59:10;;;;;;;109.35;103.40;;;;;;;27.26;50.51;96874.09;5074321;28;20254;-65
2022/07/22 11:01:38;;;;;;;102.63;97.00;;;;;;;27.11;50.49;96872.81;5073024;28;20219;-65
2022/07/22 11:04:12;;;;;;;79.70;75.03;;;;;;;27.35;50.40;96868.63;5072281;28;20193;-66